createdAt,value
2023-06-11T00:00:39.989Z,83.22
2023-06-11T00:01:40.041Z,83.52
2023-06-11T00:02:40.039Z,83.62
2023-06-11T00:03:40.104Z,83.92
2023-06-11T00:04:40.002Z,83.72
2023-06-11T00:05:39.931Z,83.62
2023-06-11T00:06:39.924Z,83.86
2023-06-11T00:07:39.908Z,84.27
2023-06-11T00:08:39.903Z,83.96
2023-06-11T00:09:39.928Z,84.17
2023-06-11T00:10:39.880Z,84.17
2023-06-11T00:11:39.879Z,84.17
2023-06-11T00:12:39.891Z,84.27
2023-06-11T00:13:39.882Z,84.47
2023-06-11T00:14:39.903Z,84.27
2023-06-11T00:15:39.865Z,85.28
2023-06-11T00:16:39.937Z,84.37
2023-06-11T00:17:39.930Z,84.37
2023-06-11T00:18:39.852Z,84.06
2023-06-11T00:19:39.847Z,84.27
2023-06-11T00:20:39.816Z,84.77
2023-06-11T00:21:39.810Z,84.27
2023-06-11T00:22:39.800Z,84.31
2023-06-11T00:23:40.425Z,84.41
2023-06-11T00:24:39.794Z,85.11
2023-06-11T00:25:39.775Z,85.02
2023-06-11T00:26:39.815Z,85.22
2023-06-11T00:27:39.764Z,85.66
2023-06-11T00:28:39.780Z,85.46
2023-06-11T00:29:39.745Z,85.86
2023-06-11T00:30:39.746Z,85.46
2023-06-11T00:31:39.812Z,85.80
2023-06-11T00:32:39.800Z,86.55
2023-06-11T00:33:39.740Z,87.46
2023-06-11T00:34:39.718Z,87.66
2023-06-11T00:35:39.714Z,88.42
2023-06-11T00:36:39.704Z,88.01
2023-06-11T00:37:39.712Z,88.21
2023-06-11T00:38:39.680Z,88.21
2023-06-11T00:39:39.685Z,88.01
2023-06-11T00:40:39.662Z,88.01
2023-06-11T00:41:39.654Z,87.71
2023-06-11T00:42:39.676Z,87.91
2023-06-11T00:43:39.637Z,87.91
2023-06-11T00:44:39.636Z,87.60
2023-06-11T00:45:39.654Z,88.01
2023-06-11T00:46:39.620Z,88.46
2023-06-11T00:47:39.681Z,88.56
2023-06-11T00:48:39.623Z,88.96
2023-06-11T00:49:39.588Z,88.76
2023-06-11T00:50:39.588Z,88.76
2023-06-11T00:51:39.608Z,88.86
2023-06-11T00:52:41.162Z,88.86
2023-06-11T00:53:39.559Z,89.41
2023-06-11T00:54:39.581Z,89.26
2023-06-11T00:55:39.552Z,88.66
2023-06-11T00:56:39.564Z,89.06
2023-06-11T00:57:39.535Z,88.96
2023-06-11T00:58:39.637Z,88.96
2023-06-11T00:59:39.519Z,88.86
2023-06-11T01:00:39.545Z,89.17
2023-06-11T01:01:39.584Z,88.96
2023-06-11T01:02:39.508Z,89.02
2023-06-11T01:03:39.480Z,88.96
2023-06-11T01:04:39.555Z,89.47
2023-06-11T01:05:40.578Z,89.17
2023-06-11T01:06:39.490Z,89.26
2023-06-11T01:07:39.469Z,89.06
2023-06-11T01:08:39.454Z,88.96
2023-06-11T01:09:39.585Z,88.76
2023-06-11T01:10:39.473Z,88.56
2023-06-11T01:11:39.437Z,88.76
2023-06-11T01:12:39.427Z,88.56
2023-06-11T01:13:39.405Z,88.86
2023-06-11T01:14:39.398Z,88.96
2023-06-11T01:15:39.416Z,89.06
2023-06-11T01:16:39.421Z,89.06
2023-06-11T01:17:39.416Z,88.56
2023-06-11T01:18:39.369Z,88.96
2023-06-11T01:19:39.365Z,88.76
2023-06-11T01:20:39.379Z,88.66
2023-06-11T01:21:39.344Z,88.76
2023-06-11T01:22:39.339Z,88.76
2023-06-11T01:23:39.378Z,89.17
2023-06-11T01:24:39.348Z,88.56
2023-06-11T01:25:39.344Z,88.56
2023-06-11T01:26:39.307Z,88.56
2023-06-11T01:27:39.288Z,88.46
2023-06-11T01:28:40.289Z,88.66
2023-06-11T01:29:39.313Z,88.76
2023-06-11T01:30:39.276Z,88.66
2023-06-11T01:31:39.292Z,88.56
2023-06-11T01:32:39.295Z,88.56
2023-06-11T01:33:39.274Z,88.35
2023-06-11T01:34:39.265Z,88.15
2023-06-11T01:35:39.239Z,88.35
2023-06-11T01:36:39.223Z,88.05
2023-06-11T01:37:39.224Z,88.25
2023-06-11T01:38:39.233Z,87.85
2023-06-11T01:39:39.240Z,88.40
2023-06-11T01:40:39.198Z,88.29
2023-06-11T01:41:39.191Z,88.20
2023-06-11T01:42:39.181Z,89.01
2023-06-11T01:43:39.212Z,88.90
2023-06-11T01:44:39.168Z,88.90
2023-06-11T01:45:39.157Z,89.76
2023-06-11T01:46:39.251Z,89.76
2023-06-11T01:47:39.167Z,90.06
2023-06-11T01:48:39.192Z,89.96
2023-06-11T01:49:39.134Z,90.06
2023-06-11T01:50:39.125Z,90.36
2023-06-11T01:51:39.113Z,90.61
2023-06-11T01:52:39.126Z,90.41
2023-06-11T01:53:39.124Z,90.20
2023-06-11T01:54:39.089Z,90.31
2023-06-11T01:55:39.089Z,89.70
2023-06-11T01:56:39.096Z,90.00
2023-06-11T01:57:39.106Z,90.11
2023-06-11T01:58:39.070Z,89.80
2023-06-11T01:59:39.062Z,90.16
2023-06-11T02:00:39.050Z,89.90
2023-06-11T02:01:39.043Z,89.96
2023-06-11T02:02:39.116Z,90.00
2023-06-11T02:03:39.089Z,90.41
2023-06-11T02:04:39.026Z,90.61
2023-06-11T02:05:39.010Z,91.02
2023-06-11T02:06:39.018Z,91.02
2023-06-11T02:07:39.026Z,91.02
2023-06-11T02:08:39.005Z,90.92
2023-06-11T02:09:38.977Z,90.92
2023-06-11T02:10:38.991Z,91.52
2023-06-11T02:11:38.995Z,91.32
2023-06-11T02:12:38.995Z,91.42
2023-06-11T02:13:38.948Z,90.51
2023-06-11T02:14:38.958Z,91.22
2023-06-11T02:15:38.943Z,91.52
2023-06-11T02:16:38.996Z,91.52
2023-06-11T02:17:38.967Z,91.56
2023-06-11T02:18:38.919Z,91.32
2023-06-11T02:19:38.903Z,91.52
2023-06-11T02:20:38.898Z,91.47
2023-06-11T02:21:38.923Z,91.36
2023-06-11T02:22:38.880Z,91.56
2023-06-11T02:23:38.890Z,91.06
2023-06-11T02:24:38.867Z,90.35
2023-06-11T02:25:38.869Z,91.06
2023-06-11T02:26:38.889Z,90.96
2023-06-11T02:27:38.842Z,91.47
2023-06-11T02:28:38.832Z,91.47
2023-06-11T02:29:38.825Z,91.47
2023-06-11T02:30:38.824Z,91.87
2023-06-11T02:31:38.928Z,91.97
2023-06-11T02:32:38.860Z,92.18
2023-06-11T02:33:38.803Z,91.97
2023-06-11T02:34:38.786Z,91.77
2023-06-11T02:35:38.784Z,91.97
2023-06-11T02:36:38.799Z,92.18
2023-06-11T02:37:38.775Z,92.68
2023-06-11T02:38:38.767Z,92.89
2023-06-11T02:39:38.771Z,92.93
2023-06-11T02:40:38.747Z,92.79
2023-06-11T02:41:38.783Z,92.83
2023-06-11T02:42:38.745Z,92.93
2023-06-11T02:43:38.721Z,92.22
2023-06-11T02:44:38.714Z,93.03
2023-06-11T02:45:38.740Z,92.99
2023-06-11T02:46:38.821Z,92.22
2023-06-11T02:47:38.751Z,92.83
2023-06-11T02:48:38.693Z,92.42
2023-06-11T02:49:38.678Z,91.71
2023-06-11T02:50:38.701Z,91.91
2023-06-11T02:51:38.667Z,91.51
2023-06-11T02:52:38.660Z,91.65
2023-06-11T02:53:38.654Z,92.42
2023-06-11T02:54:38.637Z,93.13
2023-06-11T02:55:38.664Z,92.77
2023-06-11T02:56:38.630Z,92.77
2023-06-11T02:57:38.619Z,93.28
2023-06-11T02:58:38.610Z,93.38
2023-06-11T02:59:38.615Z,93.74
2023-06-11T03:00:38.623Z,93.54
2023-06-11T03:01:38.634Z,93.48
2023-06-11T03:02:38.606Z,93.44
2023-06-11T03:03:38.623Z,93.59
2023-06-11T03:04:38.589Z,93.18
2023-06-11T03:05:38.595Z,93.59
2023-06-11T03:06:38.556Z,93.38
2023-06-11T03:07:38.555Z,93.48
2023-06-11T03:08:38.563Z,93.18
2023-06-11T03:09:38.579Z,93.38
2023-06-11T03:10:38.524Z,93.38
2023-06-11T03:11:38.516Z,93.28
2023-06-11T03:12:38.510Z,92.87
2023-06-11T03:13:38.519Z,92.77
2023-06-11T03:14:38.513Z,93.18
2023-06-11T03:15:38.551Z,92.97
2023-06-11T03:16:38.477Z,92.97
2023-06-11T03:17:38.498Z,92.87
2023-06-11T03:18:38.477Z,93.22
2023-06-11T03:19:38.456Z,93.07
2023-06-11T03:20:38.481Z,93.22
2023-06-11T03:21:38.439Z,93.38
2023-06-11T03:22:38.417Z,93.68
2023-06-11T03:23:39.448Z,93.59
2023-06-11T03:24:38.416Z,93.28
2023-06-11T03:25:38.404Z,93.59
2023-06-11T03:26:38.394Z,93.59
2023-06-11T03:27:38.392Z,93.38
2023-06-11T03:28:38.413Z,93.07
2023-06-11T03:29:38.381Z,92.97
2023-06-11T03:30:38.375Z,92.77
2023-06-11T03:31:38.426Z,92.72
2023-06-11T03:32:38.411Z,93.18
2023-06-11T03:33:38.376Z,92.87
2023-06-11T03:34:38.342Z,92.87
2023-06-11T03:35:38.325Z,92.32
2023-06-11T03:36:38.326Z,91.86
2023-06-11T03:37:38.362Z,92.52
2023-06-11T03:38:38.320Z,92.83
2023-06-11T03:39:38.311Z,92.26
2023-06-11T03:40:38.318Z,91.96
2023-06-11T03:41:38.277Z,92.06
2023-06-11T03:42:38.327Z,92.47
2023-06-11T03:43:38.266Z,92.02
2023-06-11T03:44:38.280Z,92.87
2023-06-11T03:45:38.256Z,92.52
2023-06-11T03:46:38.263Z,92.22
2023-06-11T03:47:38.337Z,91.36
2023-06-11T03:48:38.237Z,90.92
2023-06-11T03:49:38.222Z,90.00
2023-06-11T03:50:38.216Z,90.06
2023-06-11T03:51:38.230Z,88.70
2023-06-11T03:52:38.221Z,88.60
2023-06-11T03:53:38.187Z,87.74
2023-06-11T03:54:38.190Z,87.65
2023-06-11T03:55:38.204Z,87.30
2023-06-11T03:56:38.198Z,87.10
2023-06-11T03:57:38.169Z,87.14
2023-06-11T03:58:38.149Z,87.34
2023-06-11T03:59:38.141Z,87.85
2023-06-11T04:00:38.167Z,87.69
2023-06-11T04:01:38.174Z,88.29
2023-06-11T04:02:39.213Z,88.29
2023-06-11T04:03:38.208Z,88.29
2023-06-11T04:04:38.306Z,88.29
2023-06-11T04:05:38.290Z,88.05
2023-06-11T04:06:38.094Z,87.81
2023-06-11T04:07:38.084Z,86.45
2023-06-11T04:08:38.071Z,85.60
2023-06-11T04:09:38.069Z,84.25
2023-06-11T04:10:38.140Z,83.13
2023-06-11T04:11:38.053Z,83.29
2023-06-11T04:12:38.066Z,83.29
2023-06-11T04:13:38.045Z,82.55
2023-06-11T04:14:38.032Z,81.94
2023-06-11T04:15:38.039Z,81.80
2023-06-11T04:16:38.065Z,82.07
2023-06-11T04:17:38.066Z,80.85
2023-06-11T04:18:37.997Z,80.72
2023-06-11T04:19:38.019Z,79.61
2023-06-11T04:20:38.026Z,79.16
2023-06-11T04:21:37.981Z,78.06
2023-06-11T04:22:37.975Z,78.90
2023-06-11T04:23:38.001Z,79.50
2023-06-11T04:24:37.992Z,80.01
2023-06-11T04:25:37.956Z,79.16
2023-06-11T04:26:37.939Z,78.32
2023-06-11T04:27:37.976Z,77.62
2023-06-11T04:28:37.926Z,77.25
2023-06-11T04:29:37.934Z,78.06
2023-06-11T04:30:37.935Z,79.64
2023-06-11T04:31:37.965Z,81.70
2023-06-11T04:32:37.963Z,81.62
2023-06-11T04:33:37.925Z,78.66
2023-06-11T04:34:37.910Z,80.38
2023-06-11T04:35:37.868Z,79.06
2023-06-11T04:36:37.861Z,79.06
2023-06-11T04:37:37.867Z,79.00
2023-06-11T04:38:37.873Z,78.96
2023-06-11T04:39:37.844Z,78.92
2023-06-11T04:40:37.864Z,78.92
2023-06-11T04:41:37.899Z,76.97
2023-06-11T04:42:37.815Z,77.51
2023-06-11T04:43:37.834Z,78.52
2023-06-11T04:44:37.836Z,79.36
2023-06-11T04:45:37.809Z,79.73
2023-06-11T04:46:37.840Z,79.27
2023-06-11T04:47:37.810Z,81.32
2023-06-11T04:48:37.803Z,79.81
2023-06-11T04:49:37.765Z,80.18
2023-06-11T04:50:37.795Z,79.03
2023-06-11T04:51:38.743Z,78.83
2023-06-11T04:52:37.763Z,79.16
2023-06-11T04:53:37.760Z,78.72
2023-06-11T04:54:37.726Z,79.16
2023-06-11T04:55:37.736Z,80.27
2023-06-11T04:56:37.736Z,79.43
2023-06-11T04:57:37.747Z,79.13
2023-06-11T04:58:37.700Z,78.08
2023-06-11T04:59:37.702Z,78.15
2023-06-11T05:00:37.677Z,77.40
2023-06-11T05:01:37.736Z,76.50
2023-06-11T05:02:37.707Z,77.04
2023-06-11T05:03:37.663Z,77.31
2023-06-11T05:04:37.654Z,76.40
2023-06-11T05:05:37.686Z,76.90
2023-06-11T05:06:37.666Z,76.97
2023-06-11T05:07:37.654Z,76.23
2023-06-11T05:08:37.639Z,75.21
2023-06-11T05:09:37.647Z,73.24
2023-06-11T05:10:37.605Z,71.77
2023-06-11T05:11:37.671Z,70.83
2023-06-11T05:12:37.634Z,69.76
2023-06-11T05:13:37.589Z,68.39
2023-06-11T05:14:37.581Z,67.16
2023-06-11T05:15:37.574Z,66.63
2023-06-11T05:16:37.609Z,67.23
2023-06-11T05:17:37.626Z,67.40
2023-06-11T05:18:37.560Z,67.99
2023-06-11T05:19:37.548Z,68.76
2023-06-11T05:20:37.540Z,65.56
2023-06-11T05:21:37.559Z,64.87
2023-06-11T05:22:37.523Z,64.31
2023-06-11T05:23:37.530Z,64.51
2023-06-11T05:24:37.506Z,64.74
2023-06-11T05:25:37.565Z,64.61
2023-06-11T05:26:37.517Z,63.21
2023-06-11T05:27:37.501Z,64.70
2023-06-11T05:28:37.471Z,66.66
2023-06-11T05:29:37.464Z,66.60
2023-06-11T05:30:37.496Z,66.46
2023-06-11T05:31:37.541Z,69.59
2023-06-11T05:32:37.456Z,73.00
2023-06-11T05:33:37.445Z,73.17
2023-06-11T05:34:37.434Z,73.81
2023-06-11T05:35:37.454Z,73.67
2023-06-11T05:36:37.427Z,72.60
2023-06-11T05:37:37.406Z,72.20
2023-06-11T05:38:37.401Z,71.36
2023-06-11T05:39:37.417Z,70.66
2023-06-11T05:40:37.430Z,68.16
2023-06-11T05:41:37.377Z,66.96
2023-06-11T05:42:37.382Z,66.56
2023-06-11T05:43:37.378Z,66.36
2023-06-11T05:44:37.379Z,66.00
2023-06-11T05:45:37.369Z,64.84
2023-06-11T05:46:37.410Z,63.32
2023-06-11T05:47:37.394Z,63.18
2023-06-11T05:48:37.333Z,65.87
2023-06-11T05:49:37.349Z,66.63
2023-06-11T05:50:37.330Z,68.73
2023-06-11T05:51:37.315Z,71.86
2023-06-11T05:52:37.298Z,73.54
2023-06-11T05:53:37.338Z,76.69
2023-06-11T05:54:37.314Z,76.72
2023-06-11T05:55:37.285Z,77.00
2023-06-11T05:56:37.261Z,78.60
2023-06-11T05:57:37.259Z,79.04
2023-06-11T05:58:38.278Z,78.16
2023-06-11T05:59:37.256Z,76.68
2023-06-11T06:00:37.234Z,75.45
2023-06-11T06:01:37.229Z,75.01
2023-06-11T06:02:37.312Z,75.17
2023-06-11T06:03:37.362Z,74.30
2023-06-11T06:04:37.261Z,72.53
2023-06-11T06:05:37.249Z,72.23
2023-06-11T06:06:37.204Z,75.01
2023-06-11T06:07:37.200Z,75.45
2023-06-11T06:08:37.203Z,77.05
2023-06-11T06:09:38.177Z,77.11
2023-06-11T06:10:37.177Z,77.83
2023-06-11T06:11:37.156Z,79.97
2023-06-11T06:12:37.166Z,80.88
2023-06-11T06:13:37.164Z,80.98
2023-06-11T06:14:37.137Z,79.97
2023-06-11T06:15:37.144Z,79.43
2023-06-11T06:16:37.147Z,78.05
2023-06-11T06:17:37.159Z,76.47
2023-06-11T06:18:37.098Z,75.54
2023-06-11T06:19:37.088Z,75.87
2023-06-11T06:20:37.083Z,75.52
2023-06-11T06:21:37.082Z,74.29
2023-06-11T06:22:37.091Z,73.43
2023-06-11T06:23:37.073Z,74.19
2023-06-11T06:24:37.053Z,74.46
2023-06-11T06:25:37.072Z,74.30
2023-06-11T06:26:37.036Z,76.43
2023-06-11T06:27:37.061Z,74.97
2023-06-11T06:28:37.022Z,75.27
2023-06-11T06:29:37.037Z,75.17
2023-06-11T06:30:37.008Z,74.97
2023-06-11T06:31:37.053Z,74.54
2023-06-11T06:32:37.098Z,75.71
2023-06-11T06:33:36.997Z,77.11
2023-06-11T06:34:36.973Z,77.05
2023-06-11T06:35:36.985Z,76.67
2023-06-11T06:36:36.986Z,75.54
2023-06-11T06:37:36.957Z,74.84
2023-06-11T06:38:36.947Z,74.50
2023-06-11T06:39:36.952Z,75.07
2023-06-11T06:40:36.935Z,75.07
2023-06-11T06:41:36.959Z,75.07
2023-06-11T06:42:36.924Z,75.43
2023-06-11T06:43:36.930Z,75.10
2023-06-11T06:44:36.962Z,73.46
2023-06-11T06:45:36.934Z,74.63
2023-06-11T06:46:36.915Z,74.57
2023-06-11T06:47:36.973Z,73.86
2023-06-11T06:48:36.956Z,75.31
2023-06-11T06:49:36.869Z,75.01
2023-06-11T06:50:36.888Z,75.23
2023-06-11T06:51:36.848Z,74.67
2023-06-11T06:52:36.848Z,74.87
2023-06-11T06:53:36.897Z,74.90
2023-06-11T06:54:36.842Z,74.66
2023-06-11T06:55:36.854Z,73.46
2023-06-11T06:56:36.819Z,73.93
2023-06-11T06:57:36.807Z,71.79
2023-06-11T06:58:36.791Z,72.89
2023-06-11T06:59:36.789Z,72.09
2023-06-11T07:00:36.826Z,72.56
2023-06-11T07:01:36.852Z,73.39
2023-06-11T07:02:36.795Z,73.36
2023-06-11T07:03:36.770Z,74.37
2023-06-11T07:04:36.762Z,73.03
2023-06-11T07:05:36.788Z,72.63
2023-06-11T07:06:36.777Z,72.63
2023-06-11T07:07:36.729Z,71.99
2023-06-11T07:08:36.716Z,71.69
2023-06-11T07:09:36.764Z,72.13
2023-06-11T07:10:36.735Z,71.79
2023-06-11T07:11:36.731Z,72.26
2023-06-11T07:12:36.697Z,71.76
2023-06-11T07:13:36.677Z,71.49
2023-06-11T07:14:36.691Z,71.53
2023-06-11T07:15:36.716Z,73.16
2023-06-11T07:16:36.779Z,73.26
2023-06-11T07:17:36.669Z,72.59
2023-06-11T07:18:37.229Z,71.56
2023-06-11T07:19:36.670Z,70.42
2023-06-11T07:20:36.703Z,70.29
2023-06-11T07:21:36.684Z,71.79
2023-06-11T07:22:36.625Z,70.96
2023-06-11T07:23:36.655Z,70.26
2023-06-11T07:24:36.716Z,70.56
2023-06-11T07:25:36.588Z,70.26
2023-06-11T07:26:36.584Z,70.46
2023-06-11T07:27:36.578Z,70.46
2023-06-11T07:28:36.596Z,70.62
2023-06-11T07:29:36.564Z,69.13
2023-06-11T07:30:36.549Z,69.53
2023-06-11T07:31:36.586Z,69.96
2023-06-11T07:32:36.578Z,70.36
2023-06-11T07:33:36.548Z,70.83
2023-06-11T07:34:36.536Z,70.59
2023-06-11T07:35:36.513Z,69.62
2023-06-11T07:36:36.514Z,69.02
2023-06-11T07:37:36.523Z,70.42
2023-06-11T07:38:36.512Z,69.49
2023-06-11T07:39:36.485Z,67.96
2023-06-11T07:40:36.476Z,67.76
2023-06-11T07:41:36.477Z,67.63
2023-06-11T07:42:36.488Z,67.76
2023-06-11T07:43:36.474Z,68.76
2023-06-11T07:44:36.456Z,68.59
2023-06-11T07:45:36.450Z,69.93
2023-06-11T07:46:36.476Z,68.79
2023-06-11T07:47:36.519Z,69.39
2023-06-11T07:48:36.415Z,70.56
2023-06-11T07:49:36.402Z,68.03
2023-06-11T07:50:36.409Z,68.13
2023-06-11T07:51:36.417Z,68.03
2023-06-11T07:52:36.405Z,67.66
2023-06-11T07:53:36.376Z,69.56
2023-06-11T07:54:36.377Z,64.84
2023-06-11T07:55:36.354Z,64.84
2023-06-11T07:56:36.387Z,64.58
2023-06-11T07:57:36.347Z,63.38
2023-06-11T07:58:36.364Z,62.78
2023-06-11T07:59:36.342Z,62.65
2023-06-11T08:00:36.348Z,63.65
2023-06-11T08:01:36.378Z,62.78
2023-06-11T08:02:36.445Z,62.68
2023-06-11T08:03:36.315Z,64.21
2023-06-11T08:04:36.283Z,63.18
2023-06-11T08:05:36.328Z,62.26
2023-06-11T08:06:36.270Z,61.83
2023-06-11T08:07:36.278Z,62.40
2023-06-11T08:08:36.263Z,60.57
2023-06-11T08:09:36.256Z,61.47
2023-06-11T08:10:37.271Z,61.24
2023-06-11T08:11:36.245Z,60.38
2023-06-11T08:12:36.742Z,61.25
2023-06-11T08:13:36.215Z,61.76
2023-06-11T08:14:36.245Z,62.26
2023-06-11T08:15:36.229Z,61.06
2023-06-11T08:16:36.219Z,60.49
2023-06-11T08:17:36.221Z,61.99
2023-06-11T08:18:36.180Z,62.26
2023-06-11T08:19:36.207Z,62.26
2023-06-11T08:20:36.211Z,59.64
2023-06-11T08:21:36.166Z,59.96
2023-06-11T08:22:36.185Z,60.36
2023-06-11T08:23:36.195Z,59.94
2023-06-11T08:24:36.159Z,58.64
2023-06-11T08:25:36.135Z,59.06
2023-06-11T08:26:36.127Z,61.16
2023-06-11T08:27:36.143Z,60.87
2023-06-11T08:28:36.118Z,59.28
2023-06-11T08:29:36.144Z,58.91
2023-06-11T08:30:36.142Z,57.42
2023-06-11T08:31:36.131Z,57.92
2023-06-11T08:32:36.189Z,57.59
2023-06-11T08:33:36.097Z,54.90
2023-06-11T08:34:36.094Z,53.61
2023-06-11T08:35:36.064Z,55.90
2023-06-11T08:36:36.053Z,56.10
2023-06-11T08:37:36.070Z,55.08
2023-06-11T08:38:38.734Z,54.88
2023-06-11T08:39:37.024Z,54.97
2023-06-11T08:40:36.019Z,56.34
2023-06-11T08:41:36.016Z,55.94
2023-06-11T08:42:36.019Z,54.65
2023-06-11T08:43:36.023Z,54.33
2023-06-11T08:44:35.989Z,55.12
2023-06-11T08:45:35.985Z,55.05
2023-06-11T08:46:36.000Z,55.97
2023-06-11T08:47:36.044Z,55.44
2023-06-11T08:48:35.992Z,56.62
2023-06-11T08:49:38.672Z,57.99
2023-06-11T08:50:36.954Z,55.87
2023-06-11T08:51:36.958Z,56.34
2023-06-11T08:52:35.987Z,53.63
2023-06-11T08:53:35.951Z,54.90
2023-06-11T08:54:35.935Z,53.31
2023-06-11T08:55:35.941Z,54.53
2023-06-11T08:56:35.902Z,55.25
2023-06-11T08:57:35.914Z,54.82
2023-06-11T08:58:35.923Z,53.91
2023-06-11T08:59:35.874Z,55.10
2023-06-11T09:00:35.869Z,51.70
2023-06-11T09:01:35.886Z,51.72
2023-06-11T09:02:35.994Z,52.00
2023-06-11T09:03:35.872Z,52.31
2023-06-11T09:04:35.862Z,51.30
2023-06-11T09:05:35.861Z,49.61
2023-06-11T09:06:35.928Z,50.51
2023-06-11T09:07:37.643Z,50.53
2023-06-11T09:08:36.835Z,48.74
2023-06-11T09:09:35.808Z,49.74
2023-06-11T09:10:35.795Z,49.44
2023-06-11T09:11:35.810Z,47.23
2023-06-11T09:12:35.811Z,48.13
2023-06-11T09:13:35.778Z,46.53
2023-06-11T09:14:35.776Z,46.64
2023-06-11T09:15:35.793Z,46.53
2023-06-11T09:16:35.838Z,46.64
2023-06-11T09:17:35.778Z,46.31
2023-06-11T09:18:35.744Z,45.32
2023-06-11T09:19:35.730Z,43.84
2023-06-11T09:20:35.716Z,45.05
2023-06-11T09:21:35.733Z,45.05
2023-06-11T09:22:35.720Z,44.81
2023-06-11T09:23:35.827Z,44.19
2023-06-11T09:24:35.694Z,44.45
2023-06-11T09:25:35.694Z,44.13
2023-06-11T09:26:35.705Z,44.73
2023-06-11T09:27:35.669Z,44.04
2023-06-11T09:28:35.677Z,43.54
2023-06-11T09:29:35.672Z,43.64
2023-06-11T09:30:35.682Z,43.54
2023-06-11T09:31:35.732Z,43.93
2023-06-11T09:32:35.813Z,44.63
2023-06-11T09:33:35.649Z,43.32
2023-06-11T09:34:35.621Z,43.42
2023-06-11T09:35:35.656Z,43.22
2023-06-11T09:36:35.619Z,42.92
2023-06-11T09:37:35.598Z,44.41
2023-06-11T09:38:36.193Z,42.96
2023-06-11T09:39:35.594Z,44.04
2023-06-11T09:40:35.613Z,44.01
2023-06-11T09:41:35.571Z,42.72
2023-06-11T09:42:35.570Z,43.22
2023-06-11T09:43:35.562Z,44.06
2023-06-11T09:44:35.573Z,43.36
2023-06-11T09:45:35.601Z,43.84
2023-06-11T09:46:35.599Z,43.91
2023-06-11T09:47:35.544Z,43.57
2023-06-11T09:48:35.538Z,42.07
2023-06-11T09:49:35.541Z,41.69
2023-06-11T09:50:35.497Z,42.50
2023-06-11T09:51:35.503Z,42.09
2023-06-11T09:52:35.495Z,43.20
2023-06-11T09:53:36.542Z,42.31
2023-06-11T09:54:35.507Z,43.32
2023-06-11T09:55:35.468Z,43.42
2023-06-11T09:56:35.468Z,42.33
2023-06-11T09:57:35.454Z,44.73
2023-06-11T09:58:35.460Z,43.64
2023-06-11T09:59:35.458Z,43.22
2023-06-11T10:00:35.431Z,43.54
2023-06-11T10:01:35.532Z,43.12
2023-06-11T10:02:35.434Z,42.33
2023-06-11T10:03:35.563Z,42.52
2023-06-11T10:04:35.408Z,41.85
2023-06-11T10:05:35.488Z,43.74
2023-06-11T10:06:35.387Z,44.35
2023-06-11T10:07:36.461Z,44.18
2023-06-11T10:08:35.450Z,44.73
2023-06-11T10:09:35.376Z,42.52
2023-06-11T10:10:35.371Z,43.71
2023-06-11T10:11:35.360Z,43.89
2023-06-11T10:12:35.462Z,43.55
2023-06-11T10:13:35.366Z,43.64
2023-06-11T10:14:35.326Z,44.95
2023-06-11T10:15:35.317Z,44.51
2023-06-11T10:16:35.379Z,43.64
2023-06-11T10:17:35.375Z,44.55
2023-06-11T10:18:35.297Z,44.53
2023-06-11T10:19:35.297Z,44.71
2023-06-11T10:20:35.289Z,43.79
2023-06-11T10:21:35.316Z,44.71
2023-06-11T10:22:35.327Z,44.06
2023-06-11T10:23:35.334Z,44.53
2023-06-11T10:24:35.296Z,44.04
2023-06-11T10:25:35.262Z,44.41
2023-06-11T10:26:35.242Z,42.63
2023-06-11T10:27:35.250Z,43.42
2023-06-11T10:28:35.220Z,43.10
2023-06-11T10:29:35.217Z,43.28
2023-06-11T10:30:35.224Z,43.18
2023-06-11T10:31:35.211Z,43.08
2023-06-11T10:32:35.310Z,42.09
2023-06-11T10:33:35.259Z,43.28
2023-06-11T10:34:35.254Z,44.24
2023-06-11T10:35:35.191Z,43.02
2023-06-11T10:36:35.214Z,44.33
2023-06-11T10:37:35.197Z,44.73
2023-06-11T10:38:35.169Z,44.63
2023-06-11T10:39:35.147Z,43.64
2023-06-11T10:40:35.164Z,44.63
2023-06-11T10:41:35.173Z,43.79
2023-06-11T10:42:35.142Z,44.67
2023-06-11T10:43:35.131Z,43.10
2023-06-11T10:44:35.121Z,42.60
2023-06-11T10:45:35.112Z,42.33
2023-06-11T10:46:35.184Z,43.30
2023-06-11T10:47:35.167Z,42.49
2023-06-11T10:48:35.089Z,41.60
2023-06-11T10:49:35.088Z,42.09
2023-06-11T10:50:35.130Z,42.29
2023-06-11T10:51:36.518Z,42.29
2023-06-11T10:52:35.052Z,42.68
2023-06-11T10:53:35.048Z,41.22
2023-06-11T10:54:35.035Z,42.52
2023-06-11T10:55:35.068Z,42.55
2023-06-11T10:56:35.030Z,41.33
2023-06-11T10:57:35.020Z,42.23
2023-06-11T10:58:35.023Z,41.22
2023-06-11T10:59:35.012Z,41.08
2023-06-11T11:00:35.021Z,40.58
2023-06-11T11:01:34.995Z,41.18
2023-06-11T11:02:34.985Z,41.31
2023-06-11T11:03:35.071Z,40.01
2023-06-11T11:04:34.998Z,41.20
2023-06-11T11:05:34.984Z,41.67
2023-06-11T11:06:34.949Z,39.99
2023-06-11T11:07:34.947Z,40.68
2023-06-11T11:08:34.935Z,40.74
2023-06-11T11:09:34.957Z,40.84
2023-06-11T11:10:34.937Z,41.33
2023-06-11T11:11:34.924Z,41.53
2023-06-11T11:12:34.910Z,40.15
2023-06-11T11:13:34.918Z,41.52
2023-06-11T11:14:34.906Z,40.11
2023-06-11T11:15:34.888Z,40.31
2023-06-11T11:16:34.957Z,40.01
2023-06-11T11:17:34.926Z,39.42
2023-06-11T11:18:34.868Z,40.11
2023-06-11T11:19:34.924Z,38.42
2023-06-11T11:20:34.833Z,40.09
2023-06-11T11:21:34.835Z,41.28
2023-06-11T11:22:34.833Z,38.68
2023-06-11T11:23:34.945Z,39.99
2023-06-11T11:24:35.537Z,40.72
2023-06-11T11:25:34.808Z,41.10
2023-06-11T11:26:34.787Z,41.20
2023-06-11T11:27:34.792Z,40.70
2023-06-11T11:28:35.449Z,40.70
2023-06-11T11:29:35.807Z,41.10
2023-06-11T11:30:34.780Z,39.93
2023-06-11T11:31:34.818Z,40.03
2023-06-11T11:32:34.858Z,40.60
2023-06-11T11:33:34.763Z,40.50
2023-06-11T11:34:34.784Z,40.70
2023-06-11T11:35:34.728Z,41.24
2023-06-11T11:36:34.724Z,41.22
2023-06-11T11:37:34.716Z,40.82
2023-06-11T11:38:34.730Z,40.92
2023-06-11T11:39:34.709Z,40.11
2023-06-11T11:40:34.695Z,40.60
2023-06-11T11:41:34.684Z,41.49
2023-06-11T11:42:34.678Z,40.19
2023-06-11T11:43:34.715Z,40.03
2023-06-11T11:44:34.671Z,40.12
2023-06-11T11:45:34.688Z,40.72
2023-06-11T11:46:34.813Z,40.42
2023-06-11T11:47:34.688Z,40.33
2023-06-11T11:48:34.672Z,40.03
2023-06-11T11:49:34.626Z,40.76
2023-06-11T11:50:35.048Z,40.84
2023-06-11T11:51:34.614Z,41.41
2023-06-11T11:52:34.634Z,40.03
2023-06-11T11:53:34.610Z,39.67
2023-06-11T11:54:34.592Z,40.64
2023-06-11T11:55:34.640Z,41.99
2023-06-11T11:56:34.569Z,40.07
2023-06-11T11:57:34.583Z,40.07
2023-06-11T11:58:34.564Z,38.67
2023-06-11T11:59:34.537Z,38.27
2023-06-11T12:00:34.539Z,36.98
2023-06-11T12:01:34.559Z,39.26
2023-06-11T12:02:34.616Z,37.49
2023-06-11T12:03:34.750Z,39.61
2023-06-11T12:04:34.496Z,38.32
2023-06-11T12:05:34.538Z,38.70
2023-06-11T12:06:34.523Z,39.10
2023-06-11T12:07:34.483Z,38.13
2023-06-11T12:08:34.476Z,37.85
2023-06-11T12:09:34.478Z,39.93
2023-06-11T12:10:34.464Z,38.54
2023-06-11T12:11:34.498Z,38.42
2023-06-11T12:12:34.434Z,37.83
2023-06-11T12:13:35.508Z,37.83
2023-06-11T12:14:34.423Z,37.24
2023-06-11T12:15:34.460Z,37.34
2023-06-11T12:16:34.471Z,37.32
2023-06-11T12:17:34.407Z,36.71
2023-06-11T12:18:34.547Z,37.18
2023-06-11T12:19:34.421Z,35.00
2023-06-11T12:20:34.453Z,35.42
2023-06-11T12:21:34.368Z,34.84
2023-06-11T12:22:34.360Z,37.32
2023-06-11T12:23:34.411Z,36.72
2023-06-11T12:24:34.447Z,37.10
2023-06-11T12:25:34.402Z,36.37
2023-06-11T12:26:34.346Z,34.92
2023-06-11T12:27:34.326Z,36.43
2023-06-11T12:28:34.321Z,36.72
2023-06-11T12:29:34.339Z,36.82
2023-06-11T12:30:34.329Z,36.33
2023-06-11T12:31:34.335Z,36.35
2023-06-11T12:32:34.323Z,35.95
2023-06-11T12:33:34.283Z,36.61
2023-06-11T12:34:34.299Z,37.20
2023-06-11T12:35:34.279Z,37.30
2023-06-11T12:36:34.265Z,37.28
2023-06-11T12:37:34.254Z,35.68
2023-06-11T12:38:34.246Z,36.69
2023-06-11T12:39:34.269Z,38.68
2023-06-11T12:40:34.220Z,37.98
2023-06-11T12:41:34.216Z,36.59
2023-06-11T12:42:34.230Z,37.38
2023-06-11T12:43:34.212Z,37.30
2023-06-11T12:44:34.265Z,37.30
2023-06-11T12:45:34.250Z,37.99
2023-06-11T12:46:34.213Z,37.89
2023-06-11T12:47:34.231Z,37.49
2023-06-11T12:48:34.201Z,38.54
2023-06-11T12:49:34.212Z,37.53
2023-06-11T12:50:34.146Z,38.01
2023-06-11T12:51:34.158Z,37.41
2023-06-11T12:52:34.152Z,37.81